Stations météo

réclame
Mon MeteoGroup
Ecija, Espagne (8395): Température de l'air & dewpoint: 18.05.2019 03:00:00 - 24.05.2019 03:00:00 (CEST)Ecija, Espagne (8395): Vitesse du vent & gusts: 18.05.2019 03:00:00 - 24.05.2019 03:00:00 (CEST)Ecija, Espagne (8395): Direction du vent: 18.05.2019 03:00:00 - 24.05.2019 03:00:00 (CEST)Ecija, Espagne (8395): reduced air pressure: 18.05.2019 03:00:00 - 24.05.2019 03:00:00 (CEST)Ecija, Espagne (8395): Quantités de précipitations: 18.05.2019 03:00:00 - 24.05.2019 03:00:00 (CEST)
Date & Time tt [°C] td [°C] ff [km/h] ff [knt] fx [km/h] fx [knt] dd ppp [hPa] rr [mm]
24.05.2019 03:00:00 - - - - - - - - -
24.05.2019 02:00:00 19,3 7,7 10 5 22 12 WSW 1015,2 -
24.05.2019 01:00:00 21,3 8,3 10 5 29 16 W 1015,3 0,0
24.05.2019 00:00:00 22,4 7,4 13 7 24 13 SW 1015,1 0,0
23.05.2019 23:00:00 24,6 8,1 11 6 24 13 W 1014,3 0,0
23.05.2019 22:00:00 26,3 8,8 13 7 26 14 W 1013,7 0,0
23.05.2019 21:00:00 28,1 7,3 8 4 21 11 W 1013,3 0,0
23.05.2019 20:00:00 30,8 9,0 14 8 22 12 W 1013,1 -
23.05.2019 19:00:00 31,3 8,3 9 5 26 14 WNW 1013,2 0,0
23.05.2019 18:00:00 32,5 9,3 13 7 27 15 W 1013,5 0,0
23.05.2019 17:00:00 32,4 9,2 3 2 21 11 SSW 1013,9 0,0
23.05.2019 16:00:00 32,2 9,7 9 5 23 12 W 1014,8 0,0
23.05.2019 15:00:00 31,4 10,2 5 3 21 11 SSW 1015,3 0,0
23.05.2019 14:00:00 30,5 9,9 3 2 14 7 ENE 1016,2 -
23.05.2019 13:00:00 29,0 10,6 3 2 13 7 N 1016,8 0,0
23.05.2019 12:00:00 26,8 10,5 3 2 11 6 ESE 1017,2 0,0
23.05.2019 11:00:00 24,7 10,9 4 2 9 5 E 1017,8 0,0
23.05.2019 10:00:00 22,1 10,3 4 2 8 4 ESE 1018,0 0,0
23.05.2019 09:00:00 19,0 10,3 0 0 4 2 ESE 1018,1 0,0
23.05.2019 08:00:00 15,7 10,3 0 0 6 3 N 1018,0 -
23.05.2019 07:00:00 14,3 8,9 0 0 9 5 N 1017,9 0,0
23.05.2019 06:00:00 15,6 9,0 0 0 8 5 N 1017,9 0,0
23.05.2019 05:00:00 17,7 9,8 7 4 19 10 NNW 1017,8 0,0
23.05.2019 04:00:00 16,6 9,8 11 6 15 8 SW 1017,3 0,0
23.05.2019 03:00:00 18,7 10,0 13 7 25 13 SW 1017,3 0,0
23.05.2019 02:00:00 19,2 9,7 16 9 25 13 SW 1017,2 -
23.05.2019 01:00:00 19,7 9,6 14 8 24 13 SW 1017,2 0,0
23.05.2019 00:00:00 21,0 9,6 15 8 25 13 SW 1016,6 0,0
22.05.2019 23:00:00 20,3 4,8 7 4 14 7 S 1016,2 0,0
22.05.2019 22:00:00 22,7 4,6 8 4 16 8 SW 1015,4 0,0
22.05.2019 21:00:00 27,5 6,8 11 6 20 11 S 1014,7 0,0
22.05.2019 20:00:00 30,7 8,4 8 5 19 10 SSW 1013,9 -
22.05.2019 19:00:00 31,0 9,8 2 1 17 9 SSE 1014,0 0,0
22.05.2019 18:00:00 31,1 10,4 5 3 22 12 S 1014,2 0,0
22.05.2019 17:00:00 30,3 10,3 3 2 18 10 SW 1014,6 0,0
22.05.2019 16:00:00 29,3 9,9 6 3 19 10 ESE 1015,1 0,0
22.05.2019 15:00:00 29,5 11,1 8 4 18 10 E 1015,7 0,0
22.05.2019 14:00:00 28,2 11,3 5 3 16 9 E 1016,3 -
22.05.2019 13:00:00 27,0 11,4 3 2 13 7 SE 1016,8 0,0
22.05.2019 12:00:00 25,3 11,4 1 1 12 7 ENE 1017,0 0,0
22.05.2019 11:00:00 22,7 11,4 5 3 11 6 E 1017,4 0,0
22.05.2019 10:00:00 20,3 11,8 3 2 10 5 ESE 1017,5 0,0
22.05.2019 09:00:00 17,2 11,2 2 1 5 3 ESE 1017,4 0,0
22.05.2019 08:00:00 13,8 10,6 0 0 5 3 SSE 1017,4 -
22.05.2019 07:00:00 11,5 8,4 1 1 7 4 S 1016,9 0,0
22.05.2019 06:00:00 12,3 8,9 0 0 3 2 N 1016,7 0,0
22.05.2019 05:00:00 12,8 8,9 0 0 6 3 SSE 1016,7 0,0
22.05.2019 04:00:00 13,7 9,6 0 0 7 4 N 1016,6 0,0
22.05.2019 03:00:00 14,5 9,7 6 3 8 4 SSE 1016,8 0,0
22.05.2019 02:00:00 15,7 10,3 5 3 14 8 SE 1016,4 -
22.05.2019 01:00:00 17,3 11,1 9 5 18 10 WSW 1016,4 0,0
22.05.2019 00:00:00 18,6 9,9 13 7 28 15 WSW 1016,3 0,0
21.05.2019 23:00:00 19,9 8,9 13 7 31 17 WSW 1015,5 0,0
21.05.2019 22:00:00 21,8 8,7 14 8 32 17 WSW 1014,4 0,0
21.05.2019 21:00:00 24,5 8,0 17 9 35 19 W 1013,3 0,0
21.05.2019 20:00:00 28,2 8,0 11 6 22 12 WSW 1012,5 -
21.05.2019 19:00:00 28,6 8,3 11 6 26 14 WSW 1012,4 0,0
21.05.2019 18:00:00 28,9 8,5 3 2 24 13 WNW 1012,6 0,0
21.05.2019 17:00:00 28,6 8,3 9 5 27 15 WNW 1012,9 0,0
21.05.2019 16:00:00 27,5 8,4 5 3 23 13 SSE 1013,3 0,0
21.05.2019 15:00:00 27,6 9,4 6 4 28 15 S 1013,8 0,0
21.05.2019 14:00:00 26,6 9,0 3 2 23 13 NNE 1014,0 -
21.05.2019 13:00:00 25,6 9,4 5 3 17 9 W 1014,6 0,0
21.05.2019 12:00:00 24,1 9,7 5 3 14 7 ENE 1014,9 0,0
21.05.2019 11:00:00 21,6 9,4 4 2 10 5 SE 1015,5 0,0
21.05.2019 10:00:00 19,5 9,7 2 1 7 4 E 1015,6 0,0
21.05.2019 09:00:00 15,5 8,9 3 2 8 4 ESE 1015,6 0,0
21.05.2019 08:00:00 12,6 7,7 3 1 5 3 SSE 1015,3 -
21.05.2019 07:00:00 11,1 6,1 4 2 5 3 SE 1015,1 0,0
21.05.2019 06:00:00 12,1 6,4 1 1 8 4 S 1014,6 0,0
21.05.2019 05:00:00 14,2 7,3 5 3 9 5 S 1014,4 0,0
21.05.2019 04:00:00 14,4 7,0 4 2 7 4 SSE 1014,3 0,0
21.05.2019 03:00:00 15,3 6,1 0 0 4 2 ENE 1014,2 0,0
21.05.2019 02:00:00 16,6 6,4 1 0 18 10 W 1014,5 -
21.05.2019 01:00:00 17,2 6,4 9 5 28 15 SSW 1014,4 0,0
21.05.2019 00:00:00 17,6 5,5 21 11 38 21 SW 1014,0 0,0
20.05.2019 23:00:00 18,8 5,9 23 12 37 20 WSW 1013,4 0,0
20.05.2019 22:00:00 20,3 4,3 19 10 38 20 SW 1012,4 0,0
20.05.2019 21:00:00 23,1 3,6 22 12 39 21 WSW 1011,3 0,0
20.05.2019 20:00:00 26,0 3,2 22 12 36 19 WSW 1010,8 -
20.05.2019 19:00:00 27,5 2,5 16 9 28 15 WSW 1011,0 0,0
20.05.2019 18:00:00 28,0 2,9 12 7 33 18 W 1010,9 0,0
20.05.2019 17:00:00 27,8 3,4 13 7 31 17 NW 1011,1 0,0
20.05.2019 16:00:00 26,6 4,3 13 7 30 16 W 1012,0 0,0
20.05.2019 15:00:00 26,1 5,6 14 7 29 16 WNW 1012,5 0,0
20.05.2019 14:00:00 25,1 7,3 11 6 36 19 W 1012,9 -
20.05.2019 13:00:00 24,5 8,0 10 5 20 11 WSW 1013,3 0,0
20.05.2019 12:00:00 22,7 9,4 3 2 16 9 W 1013,6 0,0
20.05.2019 11:00:00 21,5 11,6 5 3 14 8 S 1013,9 0,0
20.05.2019 10:00:00 19,0 12,7 5 3 9 5 SSE 1014,1 0,0
20.05.2019 09:00:00 15,9 11,9 1 1 4 2 ESE 1014,2 0,0
20.05.2019 08:00:00 12,8 11,2 0 0 7 4 N 1013,9 -
20.05.2019 07:00:00 11,7 10,2 0 0 5 3 SSE 1013,5 0,0
20.05.2019 06:00:00 12,2 10,4 0 0 3 2 N 1013,5 0,0
20.05.2019 05:00:00 13,3 11,0 1 1 5 3 SSE 1013,4 0,0
20.05.2019 04:00:00 14,5 11,4 1 1 9 5 ESE 1013,5 0,0
20.05.2019 03:00:00 15,8 12,3 1 0 24 13 SSE 1013,6 0,0
20.05.2019 02:00:00 16,1 12,2 7 4 22 12 WSW 1013,7 -
20.05.2019 01:00:00 16,4 11,8 5 3 30 16 SSE 1014,1 0,0
20.05.2019 00:00:00 17,0 11,7 18 10 42 23 WSW 1014,0 0,0
19.05.2019 23:00:00 17,5 11,6 28 15 44 24 WSW 1013,3 0,0
19.05.2019 22:00:00 18,6 10,9 22 12 45 25 WSW 1012,5 0,0
19.05.2019 21:00:00 19,9 10,0 26 14 45 25 WSW 1011,7 0,0
19.05.2019 20:00:00 22,2 9,7 24 13 41 22 WSW 1011,2 -
19.05.2019 19:00:00 23,3 8,1 21 12 41 22 WSW 1011,0 0,0
19.05.2019 18:00:00 26,3 7,3 12 6 36 19 W 1010,6 0,0
19.05.2019 17:00:00 25,6 7,3 9 5 33 18 W 1011,3 0,0
19.05.2019 16:00:00 24,7 7,3 13 7 32 18 NW 1012,3 0,0
19.05.2019 15:00:00 23,8 7,4 10 5 32 17 NNW 1012,8 0,0
19.05.2019 14:00:00 22,6 6,4 8 5 25 14 NNW 1013,4 -
19.05.2019 13:00:00 21,8 6,4 6 3 23 12 WSW 1013,5 0,0
19.05.2019 12:00:00 20,4 6,7 9 5 34 18 W 1014,2 0,0
19.05.2019 11:00:00 19,0 6,8 6 4 17 9 NW 1014,3 0,0
19.05.2019 10:00:00 17,5 6,7 9 5 18 10 NW 1014,5 0,0
19.05.2019 09:00:00 16,1 6,2 8 5 16 8 NW 1014,4 0,0
19.05.2019 08:00:00 14,0 5,1 9 5 16 9 W 1014,3 -
19.05.2019 07:00:00 12,8 3,9 10 6 15 8 W 1013,7 0,0
19.05.2019 06:00:00 12,8 3,8 9 5 14 8 WSW 1013,7 0,0
19.05.2019 05:00:00 13,1 3,4 6 3 14 7 W 1013,4 0,0
19.05.2019 04:00:00 13,6 3,4 10 6 13 7 WSW 1013,6 0,0
19.05.2019 03:00:00 14,7 3,8 6 4 17 9 WNW 1013,8 0,0
19.05.2019 02:00:00 14,2 2,7 11 6 16 8 W 1013,8 -
19.05.2019 01:00:00 15,3 2,9 11 6 18 10 WNW 1014,1 0,0
19.05.2019 00:00:00 16,3 2,7 11 6 18 10 WNW 1014,0 0,0
18.05.2019 23:00:00 17,1 2,7 11 6 18 10 WNW 1013,7 0,0
18.05.2019 22:00:00 18,5 2,7 10 5 23 12 NW 1012,8 0,0
18.05.2019 21:00:00 21,1 3,8 14 7 28 15 NW 1012,1 0,0
18.05.2019 20:00:00 22,6 4,1 17 9 33 18 NW 1011,6 -
18.05.2019 19:00:00 24,2 4,5 21 11 37 20 NW 1011,2 0,0
18.05.2019 18:00:00 24,4 4,6 21 11 44 24 WNW 1011,2 0,0
18.05.2019 17:00:00 23,9 4,3 16 8 37 20 NW 1011,5 0,0
18.05.2019 16:00:00 23,6 4,5 18 10 36 19 WNW 1012,1 0,0
18.05.2019 15:00:00 22,8 4,8 16 8 33 18 WNW 1012,3 0,0
18.05.2019 14:00:00 21,2 5,9 16 9 45 25 NW 1013,0 -
18.05.2019 13:00:00 20,4 5,6 9 5 35 19 NNW 1013,5 0,0
18.05.2019 12:00:00 19,1 6,5 16 8 31 17 NW 1013,6 0,0
18.05.2019 11:00:00 17,4 6,5 12 6 23 13 WNW 1013,9 0,0
18.05.2019 10:00:00 15,9 6,1 15 8 26 14 NNW 1013,9 0,0
18.05.2019 09:00:00 14,6 5,6 13 7 18 10 NW 1013,8 0,0
18.05.2019 08:00:00 12,8 5,0 8 4 18 10 NW 1013,6 -
18.05.2019 07:00:00 10,8 3,6 9 5 15 8 WNW 1013,0 0,0
18.05.2019 06:00:00 11,6 3,8 11 6 16 9 WNW 1013,0 0,0
18.05.2019 05:00:00 11,3 3,4 5 3 12 6 WSW 1012,3 0,0
18.05.2019 04:00:00 12,9 3,6 8 4 14 7 WSW 1013,0 0,0
18.05.2019 03:00:00 13,9 3,9 6 3 15 8 NW 1013,1 0,0

tt = Température de l'air
td = dewpoint
ff = Vitesse du vent
fx = gusts
dd = Direction du vent
ppp = reduced air pressure
rr = Quantités de précipitations

stations d'obs. à proximité